createdAt,value
2022-12-01T00:01:31.068Z,3.62
2022-12-01T00:03:58.334Z,3.68
2022-12-01T00:06:25.544Z,3.58
2022-12-01T00:09:15.146Z,3.69
2022-12-01T00:11:45.257Z,3.77
2022-12-01T00:14:12.398Z,3.50
2022-12-01T00:16:41.049Z,3.72
2022-12-01T00:19:08.786Z,3.56
2022-12-01T00:21:35.957Z,3.55
2022-12-01T00:24:03.199Z,3.50
2022-12-01T00:26:30.398Z,3.42
2022-12-01T00:28:59.722Z,3.22
2022-12-01T00:31:27.762Z,3.29
2022-12-01T00:33:55.639Z,3.39
2022-12-01T00:36:23.119Z,3.30
2022-12-01T00:38:57.200Z,3.31
2022-12-01T00:41:26.437Z,3.37
2022-12-01T00:43:53.660Z,3.28
2022-12-01T00:46:21.181Z,3.30
2022-12-01T00:48:48.427Z,3.28
2022-12-01T00:51:15.603Z,3.40
2022-12-01T00:53:42.823Z,3.22
2022-12-01T00:56:10.042Z,3.06
2022-12-01T00:58:37.212Z,3.07
2022-12-01T01:01:04.521Z,3.23
2022-12-01T01:03:33.683Z,3.27
2022-12-01T01:06:07.962Z,3.12
2022-12-01T01:08:36.514Z,3.02
2022-12-01T01:11:05.124Z,3.04
2022-12-01T01:13:33.356Z,2.95
2022-12-01T01:16:08.390Z,2.98
2022-12-01T01:18:35.632Z,2.88
2022-12-01T01:21:10.755Z,2.74
2022-12-01T01:23:38.350Z,2.81
2022-12-01T01:26:17.286Z,2.78
2022-12-01T01:28:46.816Z,2.77
2022-12-01T01:31:21.620Z,2.93
2022-12-01T01:33:49.040Z,2.74
2022-12-01T01:36:18.147Z,2.84
2022-12-01T01:38:46.256Z,3.11
2022-12-01T01:41:14.789Z,2.78
2022-12-01T01:43:57.406Z,2.74
2022-12-01T01:46:31.864Z,2.58
2022-12-01T01:49:14.284Z,2.81
2022-12-01T01:51:53.263Z,2.43
2022-12-01T01:54:37.368Z,2.43
2022-12-01T01:57:07.657Z,2.75
2022-12-01T01:59:42.810Z,2.46
2022-12-01T02:02:12.305Z,2.50
2022-12-01T02:04:48.949Z,2.38
2022-12-01T02:07:19.104Z,2.48
2022-12-01T02:09:46.621Z,2.29
2022-12-01T02:12:58.369Z,2.39
2022-12-01T02:15:42.148Z,2.46
2022-12-01T02:18:38.933Z,2.29
2022-12-01T02:22:06.039Z,2.21
2022-12-01T02:25:06.932Z,2.45
2022-12-01T02:28:30.651Z,2.41
2022-12-01T02:31:35.731Z,2.46
2022-12-01T02:34:35.020Z,2.25
2022-12-01T02:37:15.821Z,2.24
2022-12-01T02:40:24.632Z,2.25
2022-12-01T02:43:09.596Z,2.45
2022-12-01T02:45:49.031Z,2.43
2022-12-01T02:48:33.801Z,2.57
2022-12-01T02:51:11.864Z,2.47
2022-12-01T02:53:39.173Z,2.48
2022-12-01T02:56:11.616Z,2.51
2022-12-01T02:58:39.331Z,2.63
2022-12-01T03:01:37.909Z,2.42
2022-12-01T03:04:14.374Z,2.62
2022-12-01T03:07:19.198Z,2.36
2022-12-01T03:10:25.495Z,2.66
2022-12-01T03:13:19.709Z,2.40
2022-12-01T03:16:00.669Z,2.45
2022-12-01T03:18:43.886Z,2.57
2022-12-01T03:21:33.045Z,2.71
2022-12-01T03:24:09.449Z,2.56
2022-12-01T03:26:40.010Z,2.32
2022-12-01T03:29:14.981Z,2.07
2022-12-01T03:31:53.662Z,2.25
2022-12-01T03:34:56.448Z,2.39
2022-12-01T03:37:32.590Z,2.38
2022-12-01T03:40:06.281Z,2.29
2022-12-01T03:42:37.207Z,2.18
2022-12-01T03:45:15.464Z,2.02
2022-12-01T03:47:43.415Z,1.82
2022-12-01T03:50:14.190Z,2.13
2022-12-01T03:53:19.227Z,2.23
2022-12-01T03:55:57.105Z,2.06
2022-12-01T03:58:35.482Z,2.16
2022-12-01T04:01:05.082Z,2.40
2022-12-01T04:03:33.315Z,2.14
2022-12-01T04:06:00.826Z,2.01
2022-12-01T04:08:28.032Z,2.40
2022-12-01T04:10:55.230Z,2.25
2022-12-01T04:13:23.257Z,2.30
2022-12-01T04:15:53.073Z,2.17
2022-12-01T04:18:21.484Z,2.26
2022-12-01T04:20:50.195Z,2.29
2022-12-01T04:23:36.244Z,2.17
2022-12-01T04:26:05.245Z,1.99
2022-12-01T04:28:32.413Z,2.43
2022-12-01T04:30:59.649Z,2.05
2022-12-01T04:33:26.823Z,1.71
2022-12-01T04:35:59.832Z,1.70
2022-12-01T04:38:30.810Z,1.77
2022-12-01T04:40:58.358Z,1.94
2022-12-01T04:43:26.444Z,1.92
2022-12-01T04:45:53.600Z,1.89
2022-12-01T04:48:20.826Z,2.16
2022-12-01T04:50:49.769Z,1.99
2022-12-01T04:53:16.977Z,1.76
2022-12-01T04:55:44.166Z,2.14
2022-12-01T04:58:11.411Z,1.90
2022-12-01T05:00:38.661Z,1.97
2022-12-01T05:03:09.587Z,1.91
2022-12-01T05:05:39.344Z,1.77
2022-12-01T05:08:06.609Z,2.09
2022-12-01T05:10:37.650Z,1.66
2022-12-01T05:13:05.829Z,1.77
2022-12-01T05:15:33.075Z,1.70
2022-12-01T05:18:00.719Z,1.70
2022-12-01T05:21:06.676Z,1.82
2022-12-01T05:23:36.476Z,1.69
2022-12-01T05:26:07.404Z,1.74
2022-12-01T05:28:35.831Z,1.62
2022-12-01T05:31:03.844Z,1.53
2022-12-01T05:33:31.332Z,1.42
2022-12-01T05:35:58.531Z,1.83
2022-12-01T05:38:25.664Z,1.92
2022-12-01T05:40:55.314Z,2.01
2022-12-01T05:43:28.560Z,2.03
2022-12-01T05:45:57.912Z,1.86
2022-12-01T05:48:26.489Z,1.95
2022-12-01T05:50:53.721Z,1.74
2022-12-01T05:53:21.160Z,1.72
2022-12-01T05:55:55.220Z,1.74
2022-12-01T05:58:22.633Z,1.81
2022-12-01T06:00:49.843Z,1.85
2022-12-01T06:03:17.012Z,1.86
2022-12-01T06:05:44.156Z,1.93
2022-12-01T06:08:11.324Z,1.82
2022-12-01T06:10:38.444Z,1.78
2022-12-01T06:13:05.691Z,1.76
2022-12-01T06:15:32.879Z,1.75
2022-12-01T06:18:00.054Z,1.91
2022-12-01T06:20:27.267Z,1.85
2022-12-01T06:22:54.425Z,1.86
2022-12-01T06:25:21.590Z,1.75
2022-12-01T06:27:48.888Z,1.63
2022-12-01T06:30:16.252Z,1.65
2022-12-01T06:32:43.391Z,1.97
2022-12-01T06:35:10.541Z,1.74
2022-12-01T06:37:37.693Z,1.74
2022-12-01T06:40:05.850Z,1.70
2022-12-01T06:42:33.056Z,1.70
2022-12-01T06:45:00.259Z,1.72
2022-12-01T06:47:27.507Z,1.70
2022-12-01T06:49:55.117Z,1.72
2022-12-01T06:52:22.262Z,1.82
2022-12-01T06:54:51.670Z,1.85
2022-12-01T06:57:19.020Z,1.78
2022-12-01T06:59:46.887Z,1.84
2022-12-01T07:02:14.979Z,2.00
2022-12-01T07:04:42.606Z,1.91
2022-12-01T07:07:13.129Z,1.91
2022-12-01T07:09:40.285Z,1.85
2022-12-01T07:12:07.745Z,1.97
2022-12-01T07:14:35.820Z,1.87
2022-12-01T07:17:03.130Z,1.75
2022-12-01T07:19:30.830Z,1.71
2022-12-01T07:21:58.066Z,1.56
2022-12-01T07:24:25.212Z,1.60
2022-12-01T07:26:52.489Z,1.74
2022-12-01T07:29:19.667Z,1.94
2022-12-01T07:31:46.859Z,2.02
2022-12-01T07:34:14.695Z,1.77
2022-12-01T07:36:42.054Z,1.94
2022-12-01T07:39:09.241Z,1.73
2022-12-01T07:41:36.504Z,1.68
2022-12-01T07:44:03.751Z,1.82
2022-12-01T07:46:31.102Z,1.83
2022-12-01T07:48:59.402Z,1.78
2022-12-01T07:51:27.691Z,1.77
2022-12-01T07:53:55.553Z,1.89
2022-12-01T07:56:23.406Z,1.62
2022-12-01T07:58:50.662Z,1.56
2022-12-01T08:01:22.296Z,1.86
2022-12-01T08:03:55.887Z,1.85
2022-12-01T08:06:25.023Z,1.89
2022-12-01T08:08:52.548Z,1.77
2022-12-01T08:11:26.182Z,1.91
2022-12-01T08:13:53.832Z,1.68
2022-12-01T08:16:24.190Z,2.05
2022-12-01T08:18:52.111Z,1.78
2022-12-01T08:21:22.529Z,1.74
2022-12-01T08:23:55.313Z,1.80
2022-12-01T08:26:24.670Z,2.08
2022-12-01T08:28:51.883Z,1.94
2022-12-01T08:31:27.651Z,1.88
2022-12-01T08:33:55.981Z,2.05
2022-12-01T08:36:24.437Z,1.94
2022-12-01T08:38:55.171Z,2.13
2022-12-01T08:41:24.599Z,1.92
2022-12-01T08:44:00.746Z,2.05
2022-12-01T08:46:32.642Z,1.97
2022-12-01T08:49:01.415Z,1.92
2022-12-01T08:51:29.727Z,2.07
2022-12-01T08:53:59.019Z,2.07
2022-12-01T08:56:33.891Z,2.04
2022-12-01T08:59:01.300Z,2.19
2022-12-01T09:01:29.114Z,2.23
2022-12-01T09:04:11.063Z,2.15
2022-12-01T09:06:43.974Z,2.11
2022-12-01T09:09:14.328Z,2.22
2022-12-01T09:11:43.845Z,2.15
2022-12-01T09:14:13.129Z,2.17
2022-12-01T09:16:42.175Z,2.19
2022-12-01T09:19:10.878Z,2.30
2022-12-01T09:21:40.760Z,2.30
2022-12-01T09:24:10.956Z,2.19
2022-12-01T09:26:38.072Z,2.10
2022-12-01T09:29:09.688Z,2.16
2022-12-01T09:31:37.652Z,2.13
2022-12-01T09:34:10.263Z,2.45
2022-12-01T09:36:38.579Z,2.32
2022-12-01T09:39:08.985Z,2.23
2022-12-01T09:41:49.576Z,2.61
2022-12-01T09:44:45.323Z,2.26
2022-12-01T09:47:29.774Z,2.22
2022-12-01T09:50:18.721Z,2.11
2022-12-01T09:53:08.786Z,2.32
2022-12-01T09:55:36.483Z,2.24
2022-12-01T09:58:05.729Z,2.29
2022-12-01T10:00:42.697Z,2.40
2022-12-01T10:03:30.919Z,2.27
2022-12-01T10:09:32.856Z,2.04
2022-12-01T10:12:13.563Z,2.19
2022-12-01T10:14:46.355Z,2.29
2022-12-01T10:17:25.386Z,2.10
2022-12-01T10:20:01.252Z,2.43
2022-12-01T10:23:17.425Z,2.26
2022-12-01T10:26:05.115Z,2.41
2022-12-01T10:29:04.825Z,2.37
2022-12-01T10:32:00.445Z,2.52
2022-12-01T10:34:37.516Z,2.70
2022-12-01T10:37:06.158Z,2.50
2022-12-01T10:39:44.557Z,2.65
2022-12-01T10:42:41.021Z,2.48
2022-12-01T10:45:17.040Z,2.33
2022-12-01T10:48:18.922Z,2.46
2022-12-01T10:50:54.197Z,2.64
2022-12-01T10:53:25.199Z,2.42
2022-12-01T10:56:21.972Z,2.66
2022-12-01T10:58:57.972Z,2.58
2022-12-01T11:01:31.865Z,2.51
2022-12-01T11:04:33.250Z,2.49
2022-12-01T11:07:01.718Z,2.55
2022-12-01T11:09:31.273Z,2.85
2022-12-01T11:12:04.359Z,2.82
2022-12-01T11:14:46.973Z,2.58
2022-12-01T11:17:26.547Z,2.45
2022-12-01T11:19:54.001Z,2.51
2022-12-01T11:22:26.857Z,2.45
2022-12-01T11:24:53.877Z,2.76
2022-12-01T11:27:37.060Z,2.69
2022-12-01T11:30:07.868Z,2.48
2022-12-01T11:32:39.732Z,2.59
2022-12-01T11:35:12.604Z,2.77
2022-12-01T11:38:13.337Z,2.55
2022-12-01T11:40:51.774Z,2.57
2022-12-01T11:43:26.947Z,2.59
2022-12-01T11:45:58.250Z,2.64
2022-12-01T11:48:29.751Z,2.53
2022-12-01T11:51:19.418Z,2.58
2022-12-01T11:53:46.881Z,2.77
2022-12-01T11:56:24.878Z,2.78
2022-12-01T11:59:04.873Z,2.62
2022-12-01T12:01:36.417Z,2.79
2022-12-01T12:04:36.400Z,2.90
2022-12-01T12:07:24.504Z,2.87
2022-12-01T12:10:22.265Z,2.70
2022-12-01T12:13:34.665Z,2.69
2022-12-01T12:16:32.024Z,2.76
2022-12-01T12:20:00.131Z,2.76
2022-12-01T12:23:01.453Z,2.94
2022-12-01T12:25:59.219Z,2.88
2022-12-01T12:28:56.058Z,2.71
2022-12-01T12:31:47.100Z,2.70
2022-12-01T12:34:35.034Z,2.89
2022-12-01T12:37:34.752Z,2.97
2022-12-01T12:40:17.816Z,2.78
2022-12-01T12:43:18.398Z,2.93
2022-12-01T12:46:08.581Z,2.92
2022-12-01T12:49:20.904Z,2.83
2022-12-01T12:52:08.305Z,2.98
2022-12-01T12:55:06.042Z,2.90
2022-12-01T12:57:39.730Z,2.71
2022-12-01T13:00:27.426Z,2.75
2022-12-01T13:03:49.261Z,2.67
2022-12-01T13:06:43.328Z,2.56
2022-12-01T13:09:26.989Z,2.56
2022-12-01T13:12:28.242Z,2.48
2022-12-01T13:15:20.590Z,2.63
2022-12-01T13:18:03.973Z,2.83
2022-12-01T13:20:34.721Z,2.88
2022-12-01T13:23:03.596Z,2.86
2022-12-01T13:25:39.837Z,2.88
2022-12-01T13:28:27.253Z,2.72
2022-12-01T13:31:13.986Z,2.83
2022-12-01T13:34:26.623Z,2.89
2022-12-01T13:36:56.064Z,2.99
2022-12-01T13:39:35.406Z,2.77
2022-12-01T13:42:07.949Z,2.65
2022-12-01T13:44:41.994Z,2.51
2022-12-01T13:47:11.816Z,2.48
2022-12-01T13:49:48.733Z,2.63
2022-12-01T13:52:22.089Z,2.54
2022-12-01T13:55:07.425Z,2.67
2022-12-01T13:57:42.983Z,2.66
2022-12-01T14:00:31.651Z,2.67
2022-12-01T14:03:19.963Z,2.53
2022-12-01T14:05:53.143Z,2.81
2022-12-01T14:08:34.219Z,2.64
2022-12-01T14:11:22.516Z,2.73
2022-12-01T14:14:10.264Z,2.87
2022-12-01T14:16:58.619Z,2.86
2022-12-01T14:19:32.300Z,2.79
2022-12-01T14:22:02.399Z,2.66
2022-12-01T14:24:51.120Z,2.95
2022-12-01T14:27:42.093Z,2.69
2022-12-01T14:30:46.415Z,2.68
2022-12-01T14:33:57.935Z,2.62
2022-12-01T14:37:08.873Z,2.57
2022-12-01T14:39:40.745Z,2.62
2022-12-01T14:42:11.041Z,2.60
2022-12-01T14:44:47.687Z,2.56
2022-12-01T14:47:49.395Z,2.77
2022-12-01T14:50:31.890Z,2.65
2022-12-01T14:53:24.690Z,2.62
2022-12-01T14:55:59.911Z,2.52
2022-12-01T14:58:31.524Z,2.61
2022-12-01T15:01:13.229Z,2.50
2022-12-01T15:03:50.550Z,2.48
2022-12-01T15:06:27.253Z,2.48
2022-12-01T15:09:34.364Z,2.60
2022-12-01T15:12:07.462Z,2.41
2022-12-01T15:14:48.206Z,2.59
2022-12-01T15:17:34.539Z,2.39
2022-12-01T15:20:01.926Z,2.48
2022-12-01T15:22:33.363Z,2.61
2022-12-01T15:25:13.333Z,2.67
2022-12-01T15:27:40.814Z,2.44
2022-12-01T15:30:15.179Z,2.38
2022-12-01T15:32:45.830Z,2.42
2022-12-01T15:35:22.822Z,2.39
2022-12-01T15:37:52.377Z,2.45
2022-12-01T15:43:22.148Z,2.29
2022-12-01T15:46:00.723Z,2.34
2022-12-01T15:48:35.615Z,2.31
2022-12-01T15:51:18.387Z,2.41
2022-12-01T15:53:55.371Z,2.26
2022-12-01T15:56:31.630Z,2.16
2022-12-01T15:59:24.127Z,2.25
2022-12-01T16:01:51.395Z,2.31
2022-12-01T16:04:24.237Z,2.18
2022-12-01T16:07:01.833Z,2.32
2022-12-01T16:09:37.781Z,2.14
2022-12-01T16:12:23.087Z,2.23
2022-12-01T16:14:52.774Z,2.16
2022-12-01T16:17:20.783Z,2.19
2022-12-01T16:19:47.942Z,2.08
2022-12-01T16:22:21.912Z,2.35
2022-12-01T16:24:55.467Z,2.19
2022-12-01T16:27:29.891Z,2.10
2022-12-01T16:30:19.111Z,2.24
2022-12-01T16:32:49.175Z,2.28
2022-12-01T16:35:34.433Z,2.26
2022-12-01T16:38:16.128Z,2.21
2022-12-01T16:40:43.820Z,2.37
2022-12-01T16:43:21.639Z,2.23
2022-12-01T16:45:52.901Z,2.21
2022-12-01T16:48:20.415Z,2.22
2022-12-01T16:50:49.355Z,2.33
2022-12-01T16:53:16.921Z,2.42
2022-12-01T16:55:56.850Z,2.19
2022-12-01T16:58:25.354Z,2.26
2022-12-01T17:00:53.436Z,2.13
2022-12-01T17:03:27.799Z,2.25
2022-12-01T17:05:55.499Z,2.06
2022-12-01T17:08:23.354Z,2.13
2022-12-01T17:10:52.285Z,2.29
2022-12-01T17:13:23.364Z,2.25
2022-12-01T17:15:54.719Z,2.30
2022-12-01T17:18:24.060Z,2.19
2022-12-01T17:21:04.843Z,2.18
2022-12-01T17:23:33.240Z,2.15
2022-12-01T17:26:01.198Z,2.13
2022-12-01T17:28:28.405Z,2.19
2022-12-01T17:31:00.684Z,2.15
2022-12-01T17:33:28.002Z,2.09
2022-12-01T17:35:55.150Z,2.18
2022-12-01T17:38:22.338Z,2.03
2022-12-01T17:41:25.396Z,2.18
2022-12-01T17:43:52.605Z,2.30
2022-12-01T17:46:19.964Z,2.20
2022-12-01T17:48:47.459Z,2.00
2022-12-01T17:51:15.373Z,2.10
2022-12-01T17:53:42.726Z,2.06
2022-12-01T17:56:13.514Z,2.16
2022-12-01T17:58:40.756Z,2.16
2022-12-01T18:01:17.151Z,2.02
2022-12-01T18:03:44.914Z,2.11
2022-12-01T18:06:13.251Z,2.15
2022-12-01T18:08:43.489Z,2.19
2022-12-01T18:11:15.990Z,2.14
2022-12-01T18:13:47.218Z,2.10
2022-12-01T18:16:19.368Z,2.05
2022-12-01T18:18:47.757Z,1.94
2022-12-01T18:21:18.663Z,2.04
2022-12-01T18:23:51.736Z,1.94
2022-12-01T18:26:21.906Z,2.14
2022-12-01T18:28:58.960Z,2.08
2022-12-01T18:31:27.668Z,2.02
2022-12-01T18:33:59.265Z,2.00
2022-12-01T18:36:26.708Z,1.98
2022-12-01T18:38:59.033Z,2.13
2022-12-01T18:41:26.951Z,1.81
2022-12-01T18:43:54.739Z,2.00
2022-12-01T18:46:22.627Z,1.80
2022-12-01T18:49:00.669Z,1.97
2022-12-01T18:51:29.980Z,1.78
2022-12-01T18:53:59.973Z,1.86
2022-12-01T18:56:28.497Z,2.01
2022-12-01T18:59:06.845Z,1.99
2022-12-01T19:01:39.353Z,1.99
2022-12-01T19:04:09.880Z,2.10
2022-12-01T19:06:39.771Z,1.82
2022-12-01T19:09:10.387Z,1.85
2022-12-01T19:11:40.350Z,1.80
2022-12-01T19:14:13.101Z,1.96
2022-12-01T19:16:40.468Z,1.85
2022-12-01T19:19:07.837Z,1.68
2022-12-01T19:21:36.287Z,1.85
2022-12-01T19:24:03.708Z,1.75
2022-12-01T19:26:31.392Z,1.80
2022-12-01T19:28:59.382Z,1.85
2022-12-01T19:31:26.686Z,1.68
2022-12-01T19:33:55.026Z,1.80
2022-12-01T19:36:26.308Z,1.87
2022-12-01T19:38:57.441Z,1.78
2022-12-01T19:41:26.213Z,1.81
2022-12-01T19:43:54.741Z,1.79
2022-12-01T19:46:26.929Z,1.78
2022-12-01T19:49:00.524Z,1.65
2022-12-01T19:51:33.445Z,1.72
2022-12-01T19:54:01.058Z,1.56
2022-12-01T19:56:28.983Z,1.70
2022-12-01T19:58:57.243Z,1.91
2022-12-01T20:01:26.159Z,1.64
2022-12-01T20:03:54.369Z,1.66
2022-12-01T20:06:26.102Z,1.84
2022-12-01T20:08:56.893Z,2.02
2022-12-01T20:11:25.806Z,1.88
2022-12-01T20:13:53.328Z,1.77
2022-12-01T20:16:24.319Z,1.76
2022-12-01T20:18:53.497Z,1.91
2022-12-01T20:21:24.766Z,1.87
2022-12-01T20:24:00.918Z,1.89
2022-12-01T20:26:32.399Z,1.74
2022-12-01T20:29:07.396Z,1.87
2022-12-01T20:31:36.744Z,1.79
2022-12-01T20:34:10.585Z,1.73
2022-12-01T20:36:39.256Z,1.76
2022-12-01T20:39:08.081Z,1.79
2022-12-01T20:41:36.243Z,1.70
2022-12-01T20:44:07.496Z,1.62
2022-12-01T20:46:37.951Z,1.82
2022-12-01T20:49:05.458Z,1.69
2022-12-01T20:51:33.349Z,1.55
2022-12-01T20:54:27.448Z,1.68
2022-12-01T20:56:50.631Z,1.70
2022-12-01T20:59:17.797Z,1.61
2022-12-01T21:01:44.991Z,1.76
2022-12-01T21:04:12.187Z,1.66
2022-12-01T21:06:39.339Z,1.54
2022-12-01T21:09:07.403Z,1.66
2022-12-01T21:12:02.976Z,1.54
2022-12-01T21:15:01.228Z,1.48
2022-12-01T21:17:43.726Z,1.64
2022-12-01T21:20:25.066Z,1.61
2022-12-01T21:22:53.573Z,1.58
2022-12-01T21:25:24.340Z,1.61
2022-12-01T21:27:54.706Z,1.52
2022-12-01T21:30:29.754Z,1.42
2022-12-01T21:33:41.220Z,1.39
2022-12-01T21:36:20.786Z,1.45
2022-12-01T21:39:00.439Z,1.55
2022-12-01T21:41:30.133Z,1.55
2022-12-01T21:44:28.161Z,1.59
2022-12-01T21:46:58.114Z,1.40
2022-12-01T21:49:37.876Z,1.31
2022-12-01T21:52:23.070Z,1.38
2022-12-01T21:54:51.799Z,1.32
2022-12-01T21:57:42.927Z,1.25
2022-12-01T22:00:34.283Z,1.41
2022-12-01T22:03:37.701Z,1.40
2022-12-01T22:06:29.384Z,1.38
2022-12-01T22:09:14.322Z,1.34
2022-12-01T22:11:45.228Z,1.38
2022-12-01T22:14:23.369Z,1.38
2022-12-01T22:17:02.353Z,1.21
2022-12-01T22:19:38.625Z,1.37
2022-12-01T22:22:08.540Z,1.37
2022-12-01T22:24:45.920Z,1.23
2022-12-01T22:27:31.635Z,1.24
2022-12-01T22:30:11.121Z,1.54
2022-12-01T22:32:51.511Z,1.18
2022-12-01T22:35:54.225Z,1.19
2022-12-01T22:38:30.837Z,1.32
2022-12-01T22:41:13.161Z,1.34
2022-12-01T22:43:52.726Z,1.41
2022-12-01T22:46:39.692Z,1.42
2022-12-01T22:49:09.898Z,1.48
2022-12-01T22:51:46.358Z,1.30
2022-12-01T22:54:16.184Z,1.41
2022-12-01T22:56:47.544Z,1.44
2022-12-01T22:59:24.052Z,1.27
2022-12-01T23:01:55.020Z,1.23
2022-12-01T23:04:38.494Z,1.29
2022-12-01T23:07:32.005Z,1.31
2022-12-01T23:10:22.997Z,1.21
2022-12-01T23:12:54.785Z,1.36
2022-12-01T23:15:44.908Z,1.19
2022-12-01T23:18:23.936Z,1.32
2022-12-01T23:20:55.095Z,1.37
2022-12-01T23:23:27.960Z,1.33
2022-12-01T23:25:55.931Z,1.44
2022-12-01T23:28:24.632Z,1.38
2022-12-01T23:30:56.797Z,1.43
2022-12-01T23:33:28.888Z,1.27
2022-12-01T23:36:12.195Z,1.27
2022-12-01T23:38:43.473Z,1.37
2022-12-01T23:41:25.453Z,1.50
2022-12-01T23:43:55.895Z,1.32
2022-12-01T23:46:26.905Z,1.70
2022-12-01T23:49:09.281Z,1.57
2022-12-01T23:51:42.530Z,1.58
2022-12-01T23:54:27.769Z,1.46
2022-12-01T23:57:03.837Z,1.40
2022-12-01T23:59:31.675Z,1.62
